Latest Weather Observations for Mount Boyce

IDN60801

Issued at 7:32 pm EDT Thursday 19 January 2017 (issued every 30 minutes, with the page automatically refreshed every 10 minutes)

About weather observations | Map of weather stations | Latest weather observations for NSW | Other Formats
Station Details ID: 063292 Name: MOUNT BOYCE AWS Lat: -33.62 Lon: 150.27 Height: 1080.0 m
Data from the previous 72 hours. | See also: Recent months at Mount Boyce
Date/Time
EDT
Temp
°C
App
Temp
°C
Dew
Point
°C
Rel
Hum
%
Delta-T
°C
Wind Press
QNH
hPa
Press
MSL
hPa
Rain since
9am
mm
Dir  Spd
km/h
Gust
km/h
Spd
kts
Gust
kts
19/07:30pm 14.3 13.3 13.5 95 0.5 ENE 11 17 6 9 - - 0.0
19/07:00pm 14.9 14.5 14.1 95 0.5 ENE 9 15 5 8 - - 0.0
19/06:30pm 15.1 15.2 14.5 96 0.4 ENE 7 13 4 7 - - 0.0
19/06:00pm 14.9 14.4 13.8 93 0.7 ENE 9 17 5 9 - - 0.0
19/05:30pm 14.8 14.5 13.2 90 0.9 ENE 7 13 4 7 - - 0.0
19/05:07pm 15.6 14.9 13.3 86 1.4 ENE 9 17 5 9 - - 0.0
19/05:00pm 16.0 15.5 13.7 86 1.4 ENE 9 17 5 9 - - 0.0
19/04:57pm 16.0 15.9 13.8 87 1.3 ENE 7 19 4 10 - - 0.0
19/04:34pm 15.5 14.7 13.0 85 1.5 ENE 9 13 5 7 - - 0.0
19/04:30pm 16.0 15.4 13.5 85 1.5 ENE 9 13 5 7 - - 0.0
19/04:28pm 16.0 15.4 13.5 85 1.5 ENE 9 19 5 10 - - 0.0
19/04:00pm 15.3 14.3 13.3 88 1.2 ENE 11 20 6 11 - - 0.0
19/03:30pm 15.9 15.4 13.7 87 1.3 ENE 9 17 5 9 - - 0.0
19/03:00pm 15.5 15.4 13.9 90 1.0 ENE 7 13 4 7 - - 0.0
19/02:30pm 15.4 15.2 13.6 89 1.1 ENE 7 17 4 9 - - 0.0
19/02:00pm 14.9 14.6 13.3 90 0.9 ENE 7 13 4 7 - - 0.0
19/01:30pm 15.0 15.0 13.7 92 0.8 E 6 15 3 8 - - 0.0
19/01:00pm 14.5 13.6 12.7 89 1.0 ENE 9 17 5 9 - - 0.0
19/12:30pm 14.5 13.5 12.4 87 1.2 ENE 9 17 5 9 - - 0.0
19/12:20pm 15.1 14.6 12.6 85 1.4 ENE 7 13 4 7 - - 0.0
19/12:12pm 15.1 14.1 12.4 84 1.6 ENE 9 19 5 10 - - 0.0
19/12:00pm 15.2 14.8 13.1 87 1.2 ENE 7 17 4 9 - - 0.0
19/11:33am 15.2 14.3 12.7 85 1.5 ENE 9 17 5 9 - - 0.0
19/11:30am 15.1 14.6 12.6 85 1.4 ENE 7 17 4 9 - - 0.0
19/11:00am 14.8 13.7 12.1 84 1.5 ENE 9 17 5 9 - - 0.0
19/10:30am 14.7 13.7 12.4 86 1.3 ENE 9 17 5 9 - - 0.0
19/10:00am 13.8 12.7 11.8 88 1.1 ENE 9 17 5 9 - - 0.0
19/09:30am 13.6 12.5 11.8 89 1.0 ENE 9 20 5 11 - - 0.0
19/09:00am 13.2 11.9 12.4 95 0.5 ENE 11 17 6 9 - - 2.4
19/08:30am 12.0 10.6 10.9 93 0.6 ENE 9 17 5 9 - - 2.4
19/08:17am 12.2 11.0 11.6 96 0.3 ENE 9 17 5 9 - - 2.4
19/08:12am 12.3 11.1 11.7 96 0.3 ENE 9 17 5 9 - - 2.4
19/08:00am 11.9 10.6 11.4 97 0.3 ENE 9 17 5 9 - - 2.4
19/07:51am 12.0 10.8 11.5 97 0.3 ENE 9 17 5 9 - - 2.4
19/07:30am 11.8 10.6 11.5 98 0.2 ENE 9 13 5 7 - - 2.4
19/07:00am 11.2 9.8 10.9 98 0.2 ENE 9 15 5 8 - - 2.4
19/06:30am 11.0 9.5 10.7 98 0.2 ENE 9 17 5 9 - - 2.4
19/06:00am 11.0 9.2 10.7 98 0.2 ENE 11 17 6 9 - - 2.4
19/05:30am 11.3 9.9 11.0 98 0.2 ENE 9 20 5 11 - - 2.2
19/05:00am 11.4 10.1 11.1 98 0.2 ENE 9 20 5 11 - - 2.2
19/04:30am 11.3 9.5 11.0 98 0.2 ENE 11 20 6 11 - - 2.2
19/04:00am 11.6 9.9 11.1 97 0.3 ENE 11 20 6 11 - - 2.0
19/03:30am 11.9 10.3 11.4 97 0.3 E 11 19 6 10 - - 1.8
19/03:00am 12.4 11.3 12.1 98 0.2 E 9 17 5 9 - - 1.6
19/02:30am 12.7 11.7 12.4 98 0.2 E 9 26 5 14 - - 1.4
19/02:00am 12.8 11.1 12.3 97 0.3 E 13 24 7 13 - - 1.2
19/01:30am 13.6 12.5 13.1 97 0.3 E 11 24 6 13 - - 0.8
19/01:00am 14.0 13.4 13.5 97 0.3 E 9 20 5 11 - - 0.6
19/12:30am 14.3 13.4 13.8 97 0.3 ENE 11 24 6 13 - - 0.2
19/12:00am 14.8 14.5 14.3 97 0.3 E 9 19 5 10 - - 0.2
 
Date/Time
EDT
Temp
°C
App
Temp
°C
Dew
Point
°C
Rel
Hum
%
Delta-T
°C
Wind Press
QNH
hPa
Press
MSL
hPa
Rain since
9am
mm
Dir  Spd
km/h
Gust
km/h
Spd
kts
Gust
kts
18/11:30pm 14.7 13.9 14.1 96 0.4 E 11 19 6 10 - - 0.0
18/11:00pm 14.8 14.0 14.0 95 0.5 ENE 11 20 6 11 - - 0.0
18/10:30pm 14.9 14.1 13.9 94 0.6 ENE 11 19 6 10 - - 0.0
18/10:00pm 15.1 14.3 14.1 94 0.6 ENE 11 20 6 11 - - 0.0
18/09:30pm 15.6 14.6 14.5 93 0.7 ENE 13 20 7 11 - - 0.0
18/09:00pm 16.0 15.3 14.4 90 1.0 ENE 11 24 6 13 - - 0.0
18/08:30pm 16.8 15.9 14.8 88 1.2 ENE 13 22 7 12 - - 0.0
18/08:00pm 17.8 16.8 14.7 82 1.9 ENE 13 24 7 13 - - 0.0
18/07:49pm 18.2 16.9 14.7 80 2.1 ENE 15 24 8 13 - - 0.0
18/07:30pm 19.8 18.5 14.8 73 3.1 ENE 15 24 8 13 - - 0.0
18/07:01pm 22.1 21.1 15.5 66 4.1 ENE 15 24 8 13 - - 0.0
18/07:00pm 22.3 21.3 15.6 66 4.2 ENE 15 24 8 13 - - 0.0
18/06:30pm 23.5 21.6 15.3 60 5.1 ENE 19 32 10 17 - - 0.0
18/06:00pm 25.0 23.4 15.0 53 6.3 ENE 17 28 9 15 - - 0.0
18/05:30pm 25.2 23.5 14.6 51 6.6 ENE 17 32 9 17 - - 0.0
18/05:00pm 26.1 24.5 13.9 47 7.6 E 15 35 8 19 - - 0.0
18/04:50pm 28.6 26.9 13.7 40 9.3 SSE 15 30 8 16 - - 0.0
18/04:30pm 33.6 26.3 4.3 16 16.1 WSW 32 52 17 28 - - 0.0
18/04:00pm 33.8 25.4 3.6 15 16.5 WSW 37 63 20 34 - - 0.0
18/03:30pm 32.8 24.8 3.7 16 15.8 WSW 35 63 19 34 - - 0.0
18/03:00pm 34.2 26.2 3.9 15 16.6 W 35 72 19 39 - - 0.0
18/02:30pm 33.3 24.8 3.2 15 16.3 WSW 37 61 20 33 - - 0.0
18/02:00pm 33.9 26.8 6.3 18 15.7 W 33 52 18 28 - - 0.0
18/01:30pm 31.9 25.8 10.6 27 12.8 W 33 63 18 34 - - 0.0
18/01:00pm 31.6 25.5 11.9 30 12.1 W 35 56 19 30 - - 0.0
18/12:30pm 30.9 25.1 12.8 33 11.2 W 35 57 19 31 - - 0.0
18/12:00pm 30.7 26.7 15.2 39 9.9 W 30 52 16 28 - - 0.0
18/11:30am 29.4 23.8 14.4 40 9.5 W 37 67 20 36 - - 0.0
18/11:21am 29.2 24.3 13.8 39 9.6 W 32 67 17 36 - - 0.0
18/11:00am 29.3 25.6 15.1 42 9.1 W 28 46 15 25 - - 0.0
18/10:30am 28.4 23.7 14.3 42 8.9 W 32 56 17 30 - - 0.0
18/10:02am 27.8 23.8 14.1 43 8.6 W 28 46 15 25 - - 0.0
18/10:00am 28.0 24.1 14.3 43 8.6 W 28 41 15 22 - - 0.0
18/09:55am 27.7 23.7 14.0 43 8.6 W 28 46 15 25 - - 0.0
18/09:30am 27.4 23.9 14.4 45 8.2 W 26 46 14 25 - - 0.0
18/09:22am 27.0 23.1 14.4 46 7.9 W 28 46 15 25 - - 0.0
18/09:00am 26.6 22.7 14.4 47 7.6 W 28 43 15 23 - - 0.0
18/08:48am 26.3 22.3 14.1 47 7.6 W 28 46 15 25 - - 0.0
18/08:30am 25.9 22.8 14.4 49 7.2 W 24 37 13 20 - - 0.0
18/08:00am 25.4 22.1 13.9 49 7.1 W 24 37 13 20 - - 0.0
18/07:30am 25.2 21.7 13.4 48 7.2 W 24 44 13 24 - - 0.0
18/07:00am 25.1 20.8 13.3 48 7.2 W 28 44 15 24 - - 0.0
18/06:30am 25.3 21.0 13.2 47 7.4 W 28 46 15 25 - - 0.0
18/06:00am 25.6 20.5 13.1 46 7.6 W 32 52 17 28 - - 0.0
18/05:30am 25.7 20.6 13.2 46 7.7 WNW 32 57 17 31 - - 0.0
18/05:00am 25.8 21.0 13.0 45 7.8 WNW 30 56 16 30 - - 0.0
18/04:30am 25.8 20.7 13.0 45 7.8 W 32 52 17 28 - - 0.0
18/04:00am 26.0 20.7 13.2 45 7.8 WNW 33 56 18 30 - - 0.0
18/03:36am 26.2 21.9 13.3 45 7.9 WNW 28 56 15 30 - - 0.0
18/03:30am 26.1 22.2 13.2 44 7.9 WNW 26 46 14 25 - - 0.0
18/03:17am 26.3 22.0 13.1 44 8.1 WNW 28 46 15 25 - - 0.0
18/03:00am 26.5 23.0 13.3 44 8.1 WNW 24 43 13 23 - - 0.0
18/02:39am 26.6 22.3 13.3 43 8.2 WNW 28 48 15 26 - - 0.0
18/02:30am 26.5 23.0 13.3 44 8.1 WNW 24 41 13 22 - - 0.0
18/02:00am 26.5 23.7 13.3 44 8.1 WNW 20 35 11 19 - - 0.0
18/01:30am 26.7 23.7 12.7 42 8.5 WNW 20 33 11 18 - - 0.0
18/01:00am 27.1 23.8 12.7 41 8.8 WNW 22 39 12 21 - - 0.0
18/12:30am 27.2 24.5 12.8 41 8.8 WNW 19 32 10 17 - - 0.0
18/12:00am 27.2 25.1 13.5 42 8.5 WNW 17 35 9 19 - - 0.0
 
Date/Time
EDT
Temp
°C
App
Temp
°C
Dew
Point
°C
Rel
Hum
%
Delta-T
°C
Wind Press
QNH
hPa
Press
MSL
hPa
Rain since
9am
mm
Dir  Spd
km/h
Gust
km/h
Spd
kts
Gust
kts
17/11:30pm 27.1 25.8 13.8 44 8.3 NW 13 28 7 15 - - 0.0
17/11:00pm 26.3 25.6 14.4 48 7.4 WNW 11 20 6 11 - - 0.0
17/10:30pm 26.4 25.9 14.8 49 7.3 WNW 11 17 6 9 - - 0.0
17/10:00pm 26.0 25.6 15.1 51 6.9 WNW 11 15 6 8 - - 0.0
17/09:30pm 26.1 26.1 15.2 51 6.9 W 9 17 5 9 - - 0.0
17/09:00pm 26.1 26.1 15.2 51 6.9 SW 9 15 5 8 - - 0.0
17/08:30pm 27.2 27.1 14.9 47 7.8 WSW 9 17 5 9 - - 0.0
17/08:00pm 29.6 27.6 13.8 38 9.9 WNW 17 28 9 15 - - 0.0
17/07:30pm 29.7 27.6 13.5 37 10.1 WNW 17 28 9 15 - - 0.0
17/07:00pm 30.7 28.8 13.0 33 11.0 WNW 15 26 8 14 - - 0.0
17/06:30pm 32.2 29.7 12.4 30 12.3 WNW 17 32 9 17 - - 0.0
17/06:00pm 33.3 30.6 13.4 30 12.6 WNW 20 33 11 18 - - 0.0
17/05:30pm 33.5 31.6 13.0 29 12.9 WNW 15 24 8 13 - - 0.0
17/05:00pm 32.5 31.2 13.7 32 11.9 WNW 13 22 7 12 - - 0.0
17/04:30pm 32.3 28.7 13.0 31 12.1 W 24 48 13 26 - - 0.0
17/04:00pm 32.4 29.0 13.6 32 11.9 W 24 41 13 22 - - 0.0
17/03:40pm 31.7 27.3 13.0 32 11.7 WSW 28 54 15 29 - - 0.0
17/03:30pm 31.4 28.4 12.7 32 11.6 W 20 30 11 16 - - 0.0
17/03:00pm 31.7 28.4 11.5 29 12.3 WSW 20 39 11 21 - - 0.0
17/02:43pm 32.3 27.5 11.5 28 12.7 WSW 28 46 15 25 - - 0.0
17/02:30pm 32.2 27.9 11.9 29 12.5 WSW 26 41 14 22 - - 0.0
17/02:20pm 32.0 27.2 11.7 28 12.4 WSW 28 46 15 25 - - 0.0
17/02:00pm 30.4 25.9 11.4 31 11.5 WSW 26 46 14 25 - - 0.0
17/01:31pm 30.4 25.7 11.9 32 11.3 WSW 28 46 15 25 - - 0.0
17/01:30pm 30.8 26.2 12.2 32 11.4 WSW 28 44 15 24 - - 0.0
17/01:00pm 29.1 25.5 12.9 37 10.0 WSW 24 39 13 21 - - 0.0
17/12:30pm 29.9 25.0 13.6 36 10.2 WSW 32 44 17 24 - - 0.0
17/12:00pm 29.0 25.1 14.4 41 9.2 WSW 28 48 15 26 - - 0.0
17/11:51am 28.9 25.0 14.3 40 9.2 W 28 48 15 26 - - 0.0
17/11:30am 27.7 24.0 15.0 45 8.0 W 28 41 15 22 - - 0.0
17/11:09am 27.9 24.5 15.9 48 7.7 W 28 46 15 25 - - 0.0
17/11:00am 27.1 22.7 15.1 47 7.6 W 32 44 17 24 - - 0.0
17/10:52am 27.2 23.6 15.2 47 7.6 W 28 48 15 26 - - 0.0
17/10:30am 27.1 24.6 16.1 51 7.1 W 24 41 13 22 - - 0.0
17/10:00am 26.2 24.6 16.4 54 6.3 W 20 32 11 17 - - 0.0
17/09:30am 24.7 23.7 15.6 57 5.8 W 15 24 8 13 - - 0.0
17/09:00am 23.7 22.1 14.9 57 5.5 WNW 17 28 9 15 - - 0.0
17/08:30am 22.6 20.5 13.7 57 5.4 WNW 17 28 9 15 - - 0.0
17/08:00am 22.2 20.2 12.7 55 5.7 WNW 15 24 8 13 - - 0.0
17/07:30am 22.1 20.8 12.4 54 5.8 WNW 11 22 6 12 - - 0.0
17/07:00am 21.1 19.4 11.2 53 5.8 NW 11 24 6 13 - - 0.0
17/06:30am 20.7 18.6 9.6 49 6.3 NW 11 19 6 10 - - 0.0
17/06:00am 21.0 19.1 8.9 46 6.7 NW 9 17 5 9 - - 0.0
17/05:30am 20.9 18.1 6.8 40 7.6 NNW 11 13 6 7 - - 0.0
17/05:00am 20.8 17.2 4.8 35 8.3 NE 13 19 7 10 - - 0.0
17/04:30am 20.7 17.6 5.5 37 8.0 NNE 11 17 6 9 - - 0.0
17/04:00am 19.7 16.8 4.6 37 7.7 NNW 9 19 5 10 - - 0.0
17/03:30am 20.8 17.1 4.4 34 8.4 NNE 13 19 7 10 - - 0.0
17/03:00am 19.8 16.5 6.5 42 7.1 NNE 13 17 7 9 - - 0.0
17/02:30am 19.2 17.1 9.9 55 5.2 NNE 11 19 6 10 - - 0.0
17/02:00am 17.6 16.4 12.7 73 2.9 ENE 11 17 6 9 - - 0.0
17/01:30am 17.9 16.9 13.4 75 2.7 ENE 11 17 6 9 - - 0.0
17/01:00am 17.9 17.5 14.0 78 2.3 ENE 9 13 5 7 - - 0.0
17/12:30am 18.0 17.4 14.5 80 2.1 ENE 11 17 6 9 - - 0.0
17/12:00am 18.5 18.0 15.0 80 2.1 NE 11 17 6 9 - - 0.0
 
Date/Time
EDT
Temp
°C
App
Temp
°C
Dew
Point
°C
Rel
Hum
%
Delta-T
°C
Wind Press
QNH
hPa
Press
MSL
hPa
Rain since
9am
mm
Dir  Spd
km/h
Gust
km/h
Spd
kts
Gust
kts
16/11:30pm 18.3 18.1 15.6 84 1.7 ENE 11 17 6 9 - - 0.0
16/11:00pm 18.4 17.9 15.8 85 1.6 ENE 13 17 7 9 - - 0.0
16/10:30pm 18.8 18.7 15.9 83 1.8 ENE 11 17 6 9 - - 0.0
16/10:00pm 19.0 18.4 15.7 81 2.1 ENE 13 19 7 10 - - 0.0
16/09:30pm 19.4 18.8 15.7 79 2.3 ENE 13 19 7 10 - - 0.0
16/09:00pm 20.1 19.9 15.7 76 2.7 ENE 11 17 6 9 - - 0.0
16/08:30pm 21.1 20.5 15.6 71 3.4 ENE 13 20 7 11 - - 0.0
16/08:00pm 22.9 22.4 15.0 61 4.9 ENE 11 19 6 10 - - 0.0

Other Formats:

Comma delimited format used in spreadsheet applications
http://www.bom.gov.au/fwo/IDN60801/IDN60801.94743.axf

JavaScript Object Notation format (JSON) in row-major order
http://www.bom.gov.au/fwo/IDN60801/IDN60801.94743.json